createdAt,value
2022-11-24T00:01:21.254Z,86.66
2022-11-24T00:03:56.298Z,86.77
2022-11-24T00:06:24.411Z,86.69
2022-11-24T00:08:52.669Z,86.55
2022-11-24T00:11:26.070Z,86.80
2022-11-24T00:13:54.354Z,87.05
2022-11-24T00:16:25.061Z,86.99
2022-11-24T00:18:54.982Z,86.88
2022-11-24T00:21:23.381Z,86.97
2022-11-24T00:23:51.575Z,86.96
2022-11-24T00:26:23.897Z,86.89
2022-11-24T00:28:54.093Z,86.98
2022-11-24T00:31:25.962Z,86.62
2022-11-24T00:33:56.458Z,86.83
2022-11-24T00:36:26.265Z,86.74
2022-11-24T00:38:55.740Z,87.21
2022-11-24T00:41:25.013Z,87.39
2022-11-24T00:43:52.895Z,87.45
2022-11-24T00:46:21.247Z,87.51
2022-11-24T00:48:48.826Z,87.43
2022-11-24T00:51:18.198Z,87.49
2022-11-24T00:53:46.435Z,87.58
2022-11-24T00:56:14.166Z,87.62
2022-11-24T00:58:41.949Z,87.25
2022-11-24T01:01:16.165Z,87.10
2022-11-24T01:03:43.917Z,87.07
2022-11-24T01:06:14.659Z,87.14
2022-11-24T01:08:42.480Z,86.98
2022-11-24T01:11:25.319Z,86.83
2022-11-24T01:13:58.590Z,86.77
2022-11-24T01:16:30.165Z,86.96
2022-11-24T01:18:58.518Z,86.66
2022-11-24T01:21:26.172Z,86.75
2022-11-24T01:23:53.557Z,86.66
2022-11-24T01:26:22.450Z,86.75
2022-11-24T01:28:54.791Z,86.08
2022-11-24T01:31:23.702Z,86.29
2022-11-24T01:33:51.388Z,86.27
2022-11-24T01:36:19.436Z,86.37
2022-11-24T01:38:47.188Z,86.34
2022-11-24T01:41:18.166Z,86.17
2022-11-24T01:43:46.309Z,86.35
2022-11-24T01:46:29.252Z,86.25
2022-11-24T01:49:26.973Z,86.20
2022-11-24T01:52:07.362Z,86.24
2022-11-24T01:54:43.779Z,85.95
2022-11-24T01:57:22.149Z,86.21
2022-11-24T01:59:52.956Z,86.02
2022-11-24T02:02:22.409Z,86.31
2022-11-24T02:04:51.454Z,86.24
2022-11-24T02:07:19.355Z,86.32
2022-11-24T02:09:54.925Z,86.55
2022-11-24T02:12:26.545Z,86.39
2022-11-24T02:14:55.950Z,86.70
2022-11-24T02:17:23.602Z,86.56
2022-11-24T02:20:06.054Z,86.59
2022-11-24T02:23:01.169Z,86.51
2022-11-24T02:25:41.318Z,86.68
2022-11-24T02:28:17.387Z,86.51
2022-11-24T02:30:45.816Z,86.68
2022-11-24T02:33:14.041Z,86.73
2022-11-24T02:35:41.607Z,86.53
2022-11-24T02:38:13.633Z,86.37
2022-11-24T02:40:44.610Z,86.53
2022-11-24T02:43:15.920Z,86.61
2022-11-24T02:45:43.663Z,86.81
2022-11-24T02:48:11.063Z,86.78
2022-11-24T02:50:38.389Z,86.45
2022-11-24T02:53:06.110Z,86.88
2022-11-24T02:55:33.453Z,86.79
2022-11-24T02:58:00.808Z,86.38
2022-11-24T03:00:28.442Z,86.40
2022-11-24T03:02:55.840Z,86.34
2022-11-24T03:05:23.448Z,86.33
2022-11-24T03:07:51.174Z,86.24
2022-11-24T03:10:18.619Z,86.25
2022-11-24T03:12:46.002Z,86.27
2022-11-24T03:15:13.715Z,86.15
2022-11-24T03:17:41.146Z,86.51
2022-11-24T03:20:09.361Z,86.73
2022-11-24T03:22:37.458Z,86.76
2022-11-24T03:25:05.154Z,86.68
2022-11-24T03:27:32.722Z,86.79
2022-11-24T03:30:00.426Z,86.67
2022-11-24T03:32:27.835Z,86.38
2022-11-24T03:34:55.365Z,86.32
2022-11-24T03:37:23.106Z,86.18
2022-11-24T03:39:50.533Z,86.47
2022-11-24T03:42:17.932Z,86.30
2022-11-24T03:44:45.582Z,85.61
2022-11-24T03:47:12.970Z,85.55
2022-11-24T03:49:41.559Z,85.16
2022-11-24T03:52:09.418Z,85.51
2022-11-24T03:54:36.837Z,85.06
2022-11-24T03:57:04.282Z,84.64
2022-11-24T03:59:31.959Z,85.17
2022-11-24T04:01:59.426Z,84.76
2022-11-24T04:04:27.152Z,84.19
2022-11-24T04:06:54.532Z,84.30
2022-11-24T04:09:21.934Z,84.23
2022-11-24T04:12:07.960Z,83.98
2022-11-24T04:14:35.627Z,83.73
2022-11-24T04:17:04.787Z,83.91
2022-11-24T04:19:32.159Z,83.94
2022-11-24T04:21:59.550Z,83.54
2022-11-24T04:24:27.197Z,83.39
2022-11-24T04:26:54.593Z,83.43
2022-11-24T04:29:22.034Z,83.47
2022-11-24T04:31:49.781Z,83.29
2022-11-24T04:34:17.281Z,83.01
2022-11-24T04:36:44.669Z,83.04
2022-11-24T04:39:24.845Z,83.18
2022-11-24T04:41:53.931Z,83.35
2022-11-24T04:44:21.773Z,83.06
2022-11-24T04:46:49.213Z,83.52
2022-11-24T04:49:17.015Z,83.61
2022-11-24T04:51:44.777Z,83.62
2022-11-24T04:54:13.454Z,83.47
2022-11-24T04:56:41.796Z,83.44
2022-11-24T04:59:14.968Z,83.49
2022-11-24T05:01:43.840Z,83.66
2022-11-24T05:04:13.275Z,83.41
2022-11-24T05:06:41.190Z,83.11
2022-11-24T05:09:09.035Z,83.00
2022-11-24T05:11:36.655Z,82.96
2022-11-24T05:14:04.077Z,83.04
2022-11-24T05:16:31.597Z,83.01
2022-11-24T05:18:59.445Z,82.70
2022-11-24T05:21:27.946Z,82.72
2022-11-24T05:23:55.456Z,82.98
2022-11-24T05:26:23.131Z,82.70
2022-11-24T05:28:50.581Z,82.76
2022-11-24T05:31:18.112Z,83.12
2022-11-24T05:33:46.051Z,83.08
2022-11-24T05:36:33.446Z,83.11
2022-11-24T05:39:01.272Z,83.42
2022-11-24T05:41:28.818Z,83.22
2022-11-24T05:43:56.172Z,83.30
2022-11-24T05:46:23.867Z,83.42
2022-11-24T05:48:51.277Z,83.28
2022-11-24T05:51:18.712Z,83.60
2022-11-24T05:53:46.396Z,83.64
2022-11-24T05:56:13.814Z,83.83
2022-11-24T05:58:42.966Z,83.69
2022-11-24T06:01:10.953Z,83.84
2022-11-24T06:03:38.650Z,83.72
2022-11-24T06:06:06.232Z,84.04
2022-11-24T06:08:34.413Z,84.32
2022-11-24T06:11:17.595Z,84.74
2022-11-24T06:13:46.086Z,84.84
2022-11-24T06:16:14.974Z,84.93
2022-11-24T06:18:42.590Z,85.20
2022-11-24T06:21:11.557Z,85.27
2022-11-24T06:23:40.723Z,85.32
2022-11-24T06:26:09.216Z,85.45
2022-11-24T06:28:36.657Z,85.33
2022-11-24T06:31:05.562Z,85.35
2022-11-24T06:33:34.306Z,85.55
2022-11-24T06:36:04.728Z,85.62
2022-11-24T06:38:32.854Z,85.55
2022-11-24T06:41:26.721Z,85.53
2022-11-24T06:43:54.643Z,85.19
2022-11-24T06:46:22.682Z,85.23
2022-11-24T06:48:53.138Z,85.61
2022-11-24T06:51:20.828Z,85.68
2022-11-24T06:53:48.246Z,85.64
2022-11-24T06:56:19.373Z,85.62
2022-11-24T06:58:49.991Z,85.42
2022-11-24T07:01:18.994Z,85.52
2022-11-24T07:03:48.245Z,85.28
2022-11-24T07:06:16.668Z,85.14
2022-11-24T07:08:44.515Z,85.12
2022-11-24T07:11:15.761Z,84.84
2022-11-24T07:13:44.122Z,84.61
2022-11-24T07:16:16.753Z,84.55
2022-11-24T07:18:45.695Z,84.62
2022-11-24T07:21:13.747Z,84.24
2022-11-24T07:23:41.837Z,83.86
2022-11-24T07:26:10.521Z,83.65
2022-11-24T07:28:38.254Z,83.62
2022-11-24T07:31:07.655Z,83.46
2022-11-24T07:33:35.662Z,83.67
2022-11-24T07:36:05.163Z,83.75
2022-11-24T07:38:33.209Z,83.55
2022-11-24T07:41:09.673Z,83.31
2022-11-24T07:43:38.534Z,83.04
2022-11-24T07:46:08.127Z,82.98
2022-11-24T07:48:35.687Z,82.79
2022-11-24T07:51:05.016Z,82.70
2022-11-24T07:53:33.664Z,82.88
2022-11-24T07:56:03.352Z,82.84
2022-11-24T07:58:33.695Z,82.66
2022-11-24T08:01:10.705Z,81.72
2022-11-24T08:03:38.801Z,80.89
2022-11-24T08:08:55.140Z,79.62
2022-11-24T08:11:23.009Z,79.19
2022-11-24T08:13:50.506Z,78.67
2022-11-24T08:16:19.721Z,78.56
2022-11-24T08:18:55.050Z,77.66
2022-11-24T08:21:23.875Z,77.58
2022-11-24T08:23:56.123Z,77.70
2022-11-24T08:26:25.437Z,77.70
2022-11-24T08:28:55.482Z,77.83
2022-11-24T08:31:22.927Z,77.04
2022-11-24T08:33:50.891Z,76.12
2022-11-24T08:36:19.427Z,76.28
2022-11-24T08:38:48.945Z,76.36
2022-11-24T08:41:17.822Z,75.94
2022-11-24T08:43:45.297Z,76.46
2022-11-24T08:46:17.177Z,77.27
2022-11-24T08:48:52.154Z,77.28
2022-11-24T08:51:22.897Z,75.77
2022-11-24T08:53:58.492Z,75.35
2022-11-24T08:56:27.551Z,76.02
2022-11-24T08:58:56.267Z,74.33
2022-11-24T09:01:25.043Z,75.39
2022-11-24T09:03:53.938Z,75.99
2022-11-24T09:06:25.128Z,75.73
2022-11-24T09:08:54.663Z,75.45
2022-11-24T09:11:23.155Z,75.48
2022-11-24T09:13:50.614Z,75.14
2022-11-24T09:16:21.163Z,75.39
2022-11-24T09:18:55.014Z,73.14
2022-11-24T09:21:23.043Z,73.35
2022-11-24T09:23:52.599Z,73.91
2022-11-24T09:26:31.747Z,72.69
2022-11-24T09:29:01.642Z,72.24
2022-11-24T09:31:34.608Z,71.83
2022-11-24T09:34:07.233Z,71.51
2022-11-24T09:36:35.542Z,72.12
2022-11-24T09:39:03.830Z,69.65
2022-11-24T09:41:37.240Z,70.18
2022-11-24T09:44:04.838Z,69.29
2022-11-24T09:47:11.123Z,69.03
2022-11-24T09:49:49.842Z,68.80
2022-11-24T09:52:34.646Z,67.90
2022-11-24T09:55:05.217Z,68.33
2022-11-24T09:57:37.634Z,69.62
2022-11-24T10:00:12.725Z,67.77
2022-11-24T10:02:40.557Z,65.62
2022-11-24T10:05:08.469Z,65.86
2022-11-24T10:08:02.547Z,64.33
2022-11-24T10:10:44.401Z,63.33
2022-11-24T10:13:46.755Z,62.50
2022-11-24T10:16:40.343Z,63.28
2022-11-24T10:19:22.018Z,62.58
2022-11-24T10:21:52.464Z,63.41
2022-11-24T10:24:47.294Z,63.40
2022-11-24T10:27:39.243Z,64.44
2022-11-24T10:30:22.100Z,63.67
2022-11-24T10:32:57.078Z,64.00
2022-11-24T10:35:37.684Z,63.04
2022-11-24T10:38:25.280Z,63.04
2022-11-24T10:40:58.943Z,63.34
2022-11-24T10:43:28.523Z,62.16
2022-11-24T10:46:29.557Z,62.45
2022-11-24T10:49:03.907Z,61.07
2022-11-24T10:51:37.066Z,59.70
2022-11-24T10:54:17.523Z,59.75
2022-11-24T10:56:47.400Z,59.14
2022-11-24T10:59:26.867Z,59.42
2022-11-24T11:01:55.105Z,59.90
2022-11-24T11:04:31.029Z,58.82
2022-11-24T11:07:21.265Z,58.17
2022-11-24T11:09:49.622Z,58.06
2022-11-24T11:12:45.211Z,58.30
2022-11-24T11:15:30.597Z,58.86
2022-11-24T11:18:01.881Z,58.50
2022-11-24T11:20:31.551Z,58.73
2022-11-24T11:23:03.310Z,57.52
2022-11-24T11:25:36.249Z,58.22
2022-11-24T11:28:22.268Z,57.03
2022-11-24T11:31:18.003Z,58.79
2022-11-24T11:34:08.361Z,58.30
2022-11-24T11:36:45.249Z,58.86
2022-11-24T11:39:23.439Z,59.12
2022-11-24T11:42:45.229Z,59.99
2022-11-24T11:45:14.134Z,58.53
2022-11-24T11:47:56.663Z,58.85
2022-11-24T11:50:30.711Z,58.03
2022-11-24T11:53:27.557Z,58.30
2022-11-24T11:56:10.119Z,58.05
2022-11-24T11:58:46.981Z,58.79
2022-11-24T12:01:38.278Z,58.41
2022-11-24T12:04:21.160Z,58.56
2022-11-24T12:06:57.634Z,58.98
2022-11-24T12:09:41.547Z,58.00
2022-11-24T12:12:45.582Z,57.67
2022-11-24T12:15:31.878Z,57.53
2022-11-24T12:18:55.152Z,57.58
2022-11-24T12:21:26.047Z,59.37
2022-11-24T12:24:18.263Z,57.80
2022-11-24T12:27:03.291Z,58.35
2022-11-24T12:29:39.464Z,56.66
2022-11-24T12:32:44.012Z,57.25
2022-11-24T12:35:14.656Z,58.51
2022-11-24T12:38:03.733Z,59.52
2022-11-24T12:40:55.257Z,58.66
2022-11-24T12:43:40.010Z,59.47
2022-11-24T12:46:29.376Z,60.15
2022-11-24T12:49:20.624Z,60.54
2022-11-24T12:51:56.153Z,61.02
2022-11-24T12:54:25.830Z,61.22
2022-11-24T12:57:02.438Z,61.33
2022-11-24T12:59:48.200Z,62.10
2022-11-24T13:02:53.279Z,61.88
2022-11-24T13:05:32.872Z,62.03
2022-11-24T13:08:02.927Z,62.19
2022-11-24T13:10:56.146Z,63.19
2022-11-24T13:13:28.099Z,63.02
2022-11-24T13:19:00.748Z,65.79
2022-11-24T13:21:31.244Z,63.34
2022-11-24T13:24:04.903Z,63.14
2022-11-24T13:27:11.600Z,63.59
2022-11-24T13:29:40.247Z,62.36
2022-11-24T13:32:21.018Z,61.64
2022-11-24T13:34:55.089Z,60.95
2022-11-24T13:37:26.314Z,61.62
2022-11-24T13:40:30.016Z,62.86
2022-11-24T13:42:57.826Z,63.21
2022-11-24T13:45:45.190Z,63.92
2022-11-24T13:48:18.823Z,63.37
2022-11-24T13:50:56.191Z,64.21
2022-11-24T13:53:47.318Z,66.24
2022-11-24T13:56:17.520Z,65.82
2022-11-24T13:58:48.712Z,66.29
2022-11-24T14:01:33.944Z,67.20
2022-11-24T14:04:31.861Z,66.90
2022-11-24T14:07:12.297Z,67.84
2022-11-24T14:09:48.110Z,68.80
2022-11-24T14:12:24.404Z,68.71
2022-11-24T14:14:57.157Z,69.49
2022-11-24T14:17:28.112Z,69.76
2022-11-24T14:19:57.563Z,70.14
2022-11-24T14:22:41.345Z,70.74
2022-11-24T14:25:30.123Z,70.81
2022-11-24T14:28:00.461Z,71.38
2022-11-24T14:30:28.523Z,72.39
2022-11-24T14:32:56.422Z,71.98
2022-11-24T14:35:29.764Z,72.87
2022-11-24T14:37:58.002Z,73.87
2022-11-24T14:40:55.596Z,73.63
2022-11-24T14:43:29.157Z,73.41
2022-11-24T14:46:01.102Z,73.56
2022-11-24T14:48:37.034Z,73.88
2022-11-24T14:51:06.454Z,74.06
2022-11-24T14:53:35.003Z,73.80
2022-11-24T14:56:38.714Z,73.85
2022-11-24T14:59:24.110Z,73.80
2022-11-24T15:01:51.637Z,73.84
2022-11-24T15:04:46.723Z,74.16
2022-11-24T15:07:26.587Z,73.81
2022-11-24T15:10:00.255Z,74.33
2022-11-24T15:12:34.966Z,74.65
2022-11-24T15:15:07.182Z,75.05
2022-11-24T15:17:34.734Z,75.08
2022-11-24T15:20:17.091Z,75.34
2022-11-24T15:22:45.121Z,75.60
2022-11-24T15:25:27.869Z,75.71
2022-11-24T15:27:55.554Z,75.77
2022-11-24T15:30:23.395Z,75.94
2022-11-24T15:32:52.293Z,76.42
2022-11-24T15:35:21.688Z,76.47
2022-11-24T15:37:50.124Z,76.64
2022-11-24T15:40:18.403Z,77.05
2022-11-24T15:42:51.770Z,77.29
2022-11-24T15:45:20.771Z,77.65
2022-11-24T15:47:48.667Z,77.43
2022-11-24T15:50:16.677Z,77.39
2022-11-24T15:52:44.802Z,77.30
2022-11-24T15:55:21.253Z,77.48
2022-11-24T15:57:49.068Z,77.38
2022-11-24T16:00:19.326Z,77.45
2022-11-24T16:02:47.451Z,77.44
2022-11-24T16:05:16.373Z,77.65
2022-11-24T16:07:44.668Z,78.06
2022-11-24T16:10:34.968Z,77.36
2022-11-24T16:13:02.416Z,78.02
2022-11-24T16:15:30.482Z,77.79
2022-11-24T16:17:57.898Z,77.53
2022-11-24T16:20:25.378Z,77.36
2022-11-24T16:22:54.239Z,77.81
2022-11-24T16:25:21.749Z,77.90
2022-11-24T16:27:49.200Z,78.16
2022-11-24T16:30:17.102Z,78.03
2022-11-24T16:32:44.498Z,78.00
2022-11-24T16:35:11.965Z,78.13
2022-11-24T16:37:39.809Z,78.21
2022-11-24T16:40:07.840Z,78.29
2022-11-24T16:42:35.335Z,78.39
2022-11-24T16:45:03.380Z,78.57
2022-11-24T16:47:30.794Z,78.53
2022-11-24T16:49:58.354Z,78.38
2022-11-24T16:52:26.321Z,78.59
2022-11-24T16:54:53.761Z,79.08
2022-11-24T16:57:21.530Z,83.35
2022-11-24T16:59:49.219Z,79.86
2022-11-24T17:02:16.964Z,79.17
2022-11-24T17:04:45.426Z,79.15
2022-11-24T17:07:15.446Z,80.10
2022-11-24T17:09:43.104Z,79.69
2022-11-24T17:12:10.590Z,79.48
2022-11-24T17:14:38.410Z,79.28
2022-11-24T17:17:05.839Z,79.60
2022-11-24T17:19:33.269Z,79.59
2022-11-24T17:22:00.999Z,80.10
2022-11-24T17:24:28.577Z,80.50
2022-11-24T17:26:56.182Z,80.03
2022-11-24T17:29:24.511Z,80.12
2022-11-24T17:31:51.947Z,80.01
2022-11-24T17:34:19.520Z,79.88
2022-11-24T17:36:47.325Z,79.30
2022-11-24T17:39:15.301Z,79.74
2022-11-24T17:41:43.271Z,79.67
2022-11-24T17:44:12.662Z,79.84
2022-11-24T17:46:40.205Z,79.31
2022-11-24T17:49:08.548Z,79.73
2022-11-24T17:51:36.418Z,79.32
2022-11-24T17:54:31.134Z,78.98
2022-11-24T17:56:51.870Z,79.44
2022-11-24T17:59:19.252Z,80.67
2022-11-24T18:01:46.826Z,80.19
2022-11-24T18:04:14.624Z,80.21
2022-11-24T18:06:42.093Z,80.74
2022-11-24T18:09:09.560Z,81.57
2022-11-24T18:11:37.588Z,81.08
2022-11-24T18:14:05.113Z,81.57
2022-11-24T18:16:34.589Z,81.53
2022-11-24T18:19:09.160Z,81.67
2022-11-24T18:21:41.415Z,81.80
2022-11-24T18:24:11.247Z,81.86
2022-11-24T18:26:42.840Z,82.31
2022-11-24T18:29:11.571Z,82.63
2022-11-24T18:31:40.031Z,82.12
2022-11-24T18:34:08.223Z,82.22
2022-11-24T18:36:36.197Z,82.89
2022-11-24T18:39:06.154Z,82.50
2022-11-24T18:41:33.929Z,82.86
2022-11-24T18:44:03.168Z,82.58
2022-11-24T18:46:30.840Z,82.19
2022-11-24T18:48:58.977Z,81.65
2022-11-24T18:51:27.305Z,82.22
2022-11-24T18:53:54.949Z,82.28
2022-11-24T18:56:22.443Z,82.53
2022-11-24T18:58:54.855Z,82.49
2022-11-24T19:01:27.966Z,82.22
2022-11-24T19:03:58.385Z,82.50
2022-11-24T19:06:35.130Z,81.59
2022-11-24T19:09:15.255Z,82.33
2022-11-24T19:11:44.684Z,82.54
2022-11-24T19:14:15.274Z,82.67
2022-11-24T19:16:43.919Z,84.05
2022-11-24T19:19:12.784Z,83.07
2022-11-24T19:21:41.171Z,83.48
2022-11-24T19:24:18.949Z,84.29
2022-11-24T19:26:46.694Z,84.32
2022-11-24T19:29:14.135Z,84.74
2022-11-24T19:31:41.610Z,84.65
2022-11-24T19:34:10.081Z,84.75
2022-11-24T19:36:37.704Z,84.29
2022-11-24T19:39:05.634Z,84.10
2022-11-24T19:41:33.944Z,84.23
2022-11-24T19:44:02.804Z,84.38
2022-11-24T19:46:30.598Z,84.88
2022-11-24T19:49:02.383Z,84.65
2022-11-24T19:51:35.066Z,84.78
2022-11-24T19:54:04.862Z,84.66
2022-11-24T19:56:34.895Z,84.57
2022-11-24T19:59:05.011Z,84.94
2022-11-24T20:01:38.789Z,84.44
2022-11-24T20:04:09.353Z,84.50
2022-11-24T20:06:39.363Z,85.34
2022-11-24T20:09:10.991Z,85.60
2022-11-24T20:11:39.546Z,85.67
2022-11-24T20:14:10.073Z,85.74
2022-11-24T20:16:37.805Z,85.85
2022-11-24T20:19:07.602Z,85.84
2022-11-24T20:21:37.234Z,85.66
2022-11-24T20:24:08.187Z,85.60
2022-11-24T20:26:45.200Z,85.28
2022-11-24T20:29:14.037Z,85.45
2022-11-24T20:31:45.682Z,85.48
2022-11-24T20:34:14.029Z,85.60
2022-11-24T20:36:44.374Z,85.11
2022-11-24T20:39:18.146Z,85.40
2022-11-24T20:41:45.954Z,85.13
2022-11-24T20:44:16.252Z,85.38
2022-11-24T20:46:45.744Z,85.66
2022-11-24T20:49:16.732Z,86.00
2022-11-24T20:51:46.949Z,86.01
2022-11-24T20:54:16.813Z,86.19
2022-11-24T20:56:46.540Z,86.16
2022-11-24T20:59:17.242Z,85.56
2022-11-24T21:01:46.830Z,86.24
2022-11-24T21:04:21.459Z,86.57
2022-11-24T21:06:49.439Z,86.58
2022-11-24T21:09:17.094Z,86.52
2022-11-24T21:11:45.119Z,86.89
2022-11-24T21:14:13.342Z,86.54
2022-11-24T21:16:42.383Z,85.97
2022-11-24T21:19:15.009Z,85.76
2022-11-24T21:21:43.282Z,86.47
2022-11-24T21:24:16.262Z,86.55
2022-11-24T21:26:47.572Z,86.55
2022-11-24T21:29:17.907Z,86.45
2022-11-24T21:31:45.720Z,86.48
2022-11-24T21:34:18.643Z,85.84
2022-11-24T21:36:47.114Z,85.82
2022-11-24T21:39:15.776Z,86.74
2022-11-24T21:41:43.438Z,87.18
2022-11-24T21:44:13.074Z,86.62
2022-11-24T21:46:46.162Z,86.38
2022-11-24T21:49:17.215Z,86.95
2022-11-24T21:51:44.744Z,85.64
2022-11-24T21:54:12.184Z,85.86
2022-11-24T21:56:39.870Z,86.88
2022-11-24T21:59:07.549Z,86.25
2022-11-24T22:01:35.069Z,86.30
2022-11-24T22:04:02.897Z,86.42
2022-11-24T22:06:32.099Z,86.71
2022-11-24T22:08:59.485Z,86.70
2022-11-24T22:11:27.202Z,85.27
2022-11-24T22:13:54.631Z,83.81
2022-11-24T22:16:24.602Z,85.19
2022-11-24T22:18:52.647Z,86.09
2022-11-24T22:21:24.179Z,85.44
2022-11-24T22:23:55.113Z,85.64
2022-11-24T22:26:24.287Z,86.18
2022-11-24T22:28:53.339Z,86.25
2022-11-24T22:31:26.501Z,85.62
2022-11-24T22:33:55.930Z,85.89
2022-11-24T22:36:25.760Z,85.87
2022-11-24T22:38:55.095Z,85.60
2022-11-24T22:41:23.238Z,85.79
2022-11-24T22:43:50.683Z,86.90
2022-11-24T22:46:24.057Z,86.77
2022-11-24T22:48:53.377Z,86.57
2022-11-24T22:51:24.634Z,86.36
2022-11-24T22:53:55.550Z,86.43
2022-11-24T22:56:23.866Z,86.34
2022-11-24T22:58:51.683Z,86.18
2022-11-24T23:01:24.318Z,85.96
2022-11-24T23:03:54.682Z,86.00
2022-11-24T23:06:24.526Z,84.85
2022-11-24T23:08:53.019Z,84.36
2022-11-24T23:11:32.743Z,85.15
2022-11-24T23:14:05.226Z,84.76
2022-11-24T23:16:32.721Z,84.85
2022-11-24T23:19:00.198Z,85.11
2022-11-24T23:21:30.479Z,85.04
2022-11-24T23:24:02.244Z,85.26
2022-11-24T23:26:33.356Z,84.81
2022-11-24T23:29:01.377Z,84.59
2022-11-24T23:31:29.273Z,85.15
2022-11-24T23:34:02.862Z,84.15
2022-11-24T23:36:31.254Z,83.98
2022-11-24T23:39:04.793Z,84.49
2022-11-24T23:41:32.283Z,85.11
2022-11-24T23:44:00.204Z,85.08
2022-11-24T23:46:28.153Z,84.53
2022-11-24T23:48:56.862Z,85.17
2022-11-24T23:51:24.544Z,84.88
2022-11-24T23:53:52.581Z,84.70
2022-11-24T23:56:28.099Z,84.86
2022-11-24T23:58:55.858Z,84.80
